Time,TemperatureF,DewpointF,PressureIn,WindDirection,WindDirectionDegrees,WindSpeedMPH,WindSpeedGustMPH,Humidity,HourlyPrecipIn,Conditions,Clouds,dailyrainin,SoftwareType,DateUTC
2013-03-22 00:03:00,34.3,32.0,29.95,ENE,68,0.0,0.0,91,0.00,RA,,0.00,WeatherDisplay:10.37,2013-03-22 07:03:00,
2013-03-22 00:08:00,34.3,32.0,29.95,ENE,68,0.0,0.0,91,0.00,RA,,0.00,WeatherDisplay:10.37,2013-03-22 07:08:00,
2013-03-22 00:13:00,34.3,32.0,29.95,South,180,0.0,0.0,91,0.00,CLR,,0.00,WeatherDisplay:10.37,2013-03-22 07:13:00,
2013-03-22 00:18:00,34.3,32.0,29.95,South,180,0.0,0.0,91,0.00,CLR,,0.00,WeatherDisplay:10.37,2013-03-22 07:18:00,
2013-03-22 00:23:00,34.3,32.0,29.95,ESE,112,0.0,0.0,91,0.00,CLR,,0.00,WeatherDisplay:10.37,2013-03-22 07:23:00,
2013-03-22 00:28:00,34.3,32.0,29.96,NE,45,0.0,0.0,91,0.00,CLR,,0.00,WeatherDisplay:10.37,2013-03-22 07:28:00,
2013-03-22 00:33:00,34.3,32.0,29.96,NE,45,0.0,0.0,91,0.00,CLR,,0.00,WeatherDisplay:10.37,2013-03-22 07:33:00,
2013-03-22 00:38:00,34.2,31.8,29.96,NE,45,0.0,0.0,91,0.00,CLR,,0.00,WeatherDisplay:10.37,2013-03-22 07:38:00,
2013-03-22 00:43:00,34.0,31.6,29.96,East,90,0.0,0.0,91,0.00,CLR,,0.00,WeatherDisplay:10.37,2013-03-22 07:43:00,
2013-03-22 00:48:00,33.6,31.3,29.95,East,90,0.0,0.0,91,0.00,CLR,,0.00,WeatherDisplay:10.37,2013-03-22 07:48:00,
2013-03-22 00:53:00,33.4,31.1,29.95,East,90,0.0,0.0,91,0.00,CLR,,0.00,WeatherDisplay:10.37,2013-03-22 07:53:00,
2013-03-22 00:58:00,33.3,30.9,29.96,East,90,0.0,0.0,91,0.00,CLR,,0.00,WeatherDisplay:10.37,2013-03-22 07:58:00,
2013-03-22 01:03:00,32.9,30.8,29.96,East,90,0.0,0.0,92,0.00,CLR,,0.00,WeatherDisplay:10.37,2013-03-22 08:03:00,
2013-03-22 01:08:00,32.7,30.7,29.96,East,90,0.0,0.0,92,0.00,CLR,,0.00,WeatherDisplay:10.37,2013-03-22 08:08:00,
2013-03-22 01:13:00,32.7,30.7,29.96,East,90,0.0,0.0,92,0.00,CLR,,0.00,WeatherDisplay:10.37,2013-03-22 08:13:00,
2013-03-22 01:18:00,32.5,30.5,29.96,East,90,0.0,0.0,92,0.00,CLR,,0.00,WeatherDisplay:10.37,2013-03-22 08:18:00,
2013-03-22 01:23:00,32.4,30.3,29.96,East,90,0.0,0.0,92,0.00,CLR,,0.00,WeatherDisplay:10.37,2013-03-22 08:23:00,
2013-03-22 01:28:00,32.4,30.3,29.96,East,90,0.0,0.0,92,0.00,CLR,,0.00,WeatherDisplay:10.37,2013-03-22 08:28:00,
2013-03-22 01:33:00,32.2,30.1,29.95,East,90,0.0,0.0,92,0.00,CLR,,0.00,WeatherDisplay:10.37,2013-03-22 08:33:00,
2013-03-22 01:38:00,32.2,30.1,29.95,East,90,0.0,0.0,92,0.00,CLR,,0.00,WeatherDisplay:10.37,2013-03-22 08:38:00,
2013-03-22 01:43:00,31.8,29.8,29.95,East,90,0.0,0.0,92,0.00,CLR,,0.00,WeatherDisplay:10.37,2013-03-22 08:43:00,
2013-03-22 01:48:00,31.8,29.8,29.96,South,180,0.0,0.0,92,0.00,CLR,,0.00,WeatherDisplay:10.37,2013-03-22 08:48:00,
2013-03-22 01:53:00,31.8,29.8,29.96,SSE,158,0.0,0.0,92,0.00,CLR,,0.00,WeatherDisplay:10.37,2013-03-22 08:53:00,
2013-03-22 01:58:00,32.2,30.1,29.96,SSE,158,0.0,0.0,92,0.00,CLR,,0.00,WeatherDisplay:10.37,2013-03-22 08:58:00,
2013-03-22 02:03:00,32.2,30.1,29.96,SSE,158,0.0,0.0,92,0.00,CLR,,0.00,WeatherDisplay:10.37,2013-03-22 09:03:00,
2013-03-22 02:08:00,32.2,30.1,29.96,SSE,158,0.0,0.0,92,0.00,CLR,,0.00,WeatherDisplay:10.37,2013-03-22 09:08:00,
2013-03-22 02:13:00,32.2,30.1,29.96,SSE,158,0.0,0.0,92,0.00,CLR,,0.00,WeatherDisplay:10.37,2013-03-22 09:13:00,
2013-03-22 02:18:00,32.2,30.1,29.97,SSE,158,0.0,0.0,92,0.00,CLR,,0.00,WeatherDisplay:10.37,2013-03-22 09:18:00,
2013-03-22 02:23:00,31.8,29.8,29.97,SSE,158,0.0,0.0,92,0.00,CLR,,0.00,WeatherDisplay:10.37,2013-03-22 09:23:00,
2013-03-22 02:28:00,31.8,29.8,29.97,South,180,0.0,0.0,92,0.00,CLR,,0.00,WeatherDisplay:10.37,2013-03-22 09:28:00,
2013-03-22 02:33:00,31.6,29.6,29.97,South,180,0.0,0.0,92,0.00,CLR,,0.00,WeatherDisplay:10.37,2013-03-22 09:33:00,
2013-03-22 02:39:00,31.6,29.6,29.97,South,180,0.0,0.0,92,0.00,CLR,,0.00,WeatherDisplay:10.37,2013-03-22 09:39:00,
2013-03-22 02:44:00,31.6,29.6,29.98,South,180,0.0,0.0,92,0.00,CLR,,0.00,WeatherDisplay:10.37,2013-03-22 09:44:00,
2013-03-22 02:49:00,31.3,29.2,29.98,South,180,0.0,0.0,92,0.00,CLR,,0.00,WeatherDisplay:10.37,2013-03-22 09:49:00,
2013-03-22 02:54:00,31.3,29.2,29.98,South,180,0.0,0.0,92,0.00,CLR,,0.00,WeatherDisplay:10.37,2013-03-22 09:54:00,
2013-03-22 02:59:00,31.3,29.2,29.97,South,180,0.0,0.0,92,0.00,CLR,,0.00,WeatherDisplay:10.37,2013-03-22 09:59:00,
2013-03-22 03:04:00,31.6,29.6,29.97,South,180,0.0,0.0,92,0.00,CLR,,0.00,WeatherDisplay:10.37,2013-03-22 10:04:00,
2013-03-22 03:09:00,31.6,29.6,29.97,SSE,158,0.0,0.0,92,0.00,CLR,,0.00,WeatherDisplay:10.37,2013-03-22 10:09:00,
2013-03-22 03:14:00,31.8,29.8,29.97,SSE,158,0.0,0.0,92,0.00,CLR,,0.00,WeatherDisplay:10.37,2013-03-22 10:14:00,
2013-03-22 03:19:00,31.8,29.8,29.97,East,90,0.0,0.0,92,0.00,CLR,,0.00,WeatherDisplay:10.37,2013-03-22 10:19:00,
2013-03-22 03:24:00,32.2,30.1,29.98,ENE,68,0.0,0.0,92,0.00,CLR,,0.00,WeatherDisplay:10.37,2013-03-22 10:24:00,
2013-03-22 03:29:00,32.4,30.6,29.97,ENE,68,0.0,0.0,93,0.00,CLR,,0.00,WeatherDisplay:10.37,2013-03-22 10:29:00,
2013-03-22 03:34:00,32.5,30.7,29.97,ENE,68,0.0,0.0,93,0.00,CLR,,0.00,WeatherDisplay:10.37,2013-03-22 10:34:00,
2013-03-22 03:39:00,32.5,30.7,29.97,ENE,68,0.0,0.0,93,0.00,CLR,,0.00,WeatherDisplay:10.37,2013-03-22 10:39:00,
2013-03-22 03:44:00,32.5,30.7,29.97,ESE,112,0.0,0.0,93,0.00,CLR,,0.00,WeatherDisplay:10.37,2013-03-22 10:44:00,
2013-03-22 03:49:00,32.5,30.7,29.97,ESE,112,0.0,0.0,93,0.00,CLR,,0.00,WeatherDisplay:10.37,2013-03-22 10:49:00,
2013-03-22 03:54:00,32.5,30.7,29.97,ESE,112,0.0,0.0,93,0.00,CLR,,0.00,WeatherDisplay:10.37,2013-03-22 10:54:00,
2013-03-22 03:59:00,32.7,30.9,29.97,ESE,112,0.0,0.0,93,0.00,CLR,,0.00,WeatherDisplay:10.37,2013-03-22 10:59:00,
2013-03-22 04:04:00,32.5,30.7,29.97,ESE,112,0.0,0.0,93,0.00,CLR,,0.00,WeatherDisplay:10.37,2013-03-22 11:04:00,
2013-03-22 04:09:00,32.7,30.9,29.97,ESE,112,0.0,0.0,93,0.00,CLR,,0.00,WeatherDisplay:10.37,2013-03-22 11:09:00,
2013-03-22 04:14:00,32.7,30.9,29.97,ESE,112,0.0,0.0,93,0.00,CLR,,0.00,WeatherDisplay:10.37,2013-03-22 11:14:00,
2013-03-22 04:19:00,32.7,30.9,29.97,ESE,112,0.0,0.0,93,0.00,CLR,,0.00,WeatherDisplay:10.37,2013-03-22 11:19:00,
2013-03-22 04:24:00,32.7,30.9,29.98,ESE,112,0.0,0.0,93,0.00,CLR,,0.00,WeatherDisplay:10.37,2013-03-22 11:24:00,
2013-03-22 04:29:00,32.7,30.9,29.98,ESE,112,0.0,0.0,93,0.00,CLR,,0.00,WeatherDisplay:10.37,2013-03-22 11:29:00,
2013-03-22 04:34:00,32.7,30.9,29.98,ESE,112,0.0,0.0,93,0.00,CLR,,0.00,WeatherDisplay:10.37,2013-03-22 11:34:00,
2013-03-22 04:39:00,32.7,30.9,29.98,ESE,112,0.0,0.0,93,0.00,CLR,,0.00,WeatherDisplay:10.37,2013-03-22 11:39:00,
2013-03-22 04:44:00,32.9,31.1,29.98,ESE,112,0.0,0.0,93,0.00,CLR,,0.00,WeatherDisplay:10.37,2013-03-22 11:44:00,
2013-03-22 04:49:00,32.9,31.1,29.98,ESE,112,0.0,0.0,93,0.00,CLR,,0.00,WeatherDisplay:10.37,2013-03-22 11:49:00,
2013-03-22 04:54:00,33.1,31.3,29.98,ESE,112,0.0,0.0,93,0.00,CLR,,0.00,WeatherDisplay:10.37,2013-03-22 11:54:00,
2013-03-22 04:59:00,33.1,31.3,29.99,ESE,112,0.0,0.0,93,0.00,CLR,,0.00,WeatherDisplay:10.37,2013-03-22 11:59:00,
2013-03-22 05:04:00,33.1,31.3,29.99,ESE,112,0.0,0.0,93,0.00,CLR,,0.00,WeatherDisplay:10.37,2013-03-22 12:04:00,
2013-03-22 05:09:00,33.1,31.3,29.99,ESE,112,0.0,0.0,93,0.00,CLR,,0.00,WeatherDisplay:10.37,2013-03-22 12:09:00,
2013-03-22 05:14:00,33.1,31.3,29.99,ESE,112,0.0,0.0,93,0.00,CLR,,0.00,WeatherDisplay:10.37,2013-03-22 12:14:00,
2013-03-22 05:19:00,33.1,31.3,29.99,ESE,112,0.0,0.0,93,0.00,CLR,,0.00,WeatherDisplay:10.37,2013-03-22 12:19:00,
2013-03-22 05:24:00,33.1,31.3,29.98,SE,135,0.0,0.0,93,0.00,CLR,,0.00,WeatherDisplay:10.37,2013-03-22 12:24:00,
2013-03-22 05:29:00,33.1,31.3,29.98,SE,135,0.0,0.0,93,0.00,CLR,,0.00,WeatherDisplay:10.37,2013-03-22 12:29:00,
2013-03-22 05:34:00,33.1,31.3,29.99,SE,135,0.0,0.0,93,0.00,CLR,,0.00,WeatherDisplay:10.37,2013-03-22 12:34:00,
2013-03-22 05:39:00,33.1,31.3,29.99,SSE,158,0.0,0.0,93,0.00,CLR,,0.00,WeatherDisplay:10.37,2013-03-22 12:39:00,
2013-03-22 05:44:00,33.3,31.5,29.99,SSE,158,0.0,0.0,93,0.00,CLR,,0.00,WeatherDisplay:10.37,2013-03-22 12:44:00,
2013-03-22 05:49:00,33.3,31.5,29.99,SSE,158,0.0,0.0,93,0.00,CLR,,0.00,WeatherDisplay:10.37,2013-03-22 12:49:00,
2013-03-22 05:54:00,33.3,31.5,29.99,SSE,158,0.0,0.0,93,0.00,CLR,,0.00,WeatherDisplay:10.37,2013-03-22 12:54:00,
2013-03-22 06:00:00,33.4,31.6,29.99,South,180,0.0,0.0,93,0.00,CLR,,0.00,WeatherDisplay:10.37,2013-03-22 13:00:00,
2013-03-22 06:05:00,33.4,31.6,29.99,South,180,0.0,0.0,93,0.00,CLR,,0.00,WeatherDisplay:10.37,2013-03-22 13:05:00,
2013-03-22 06:10:00,33.4,31.6,30.00,South,180,0.0,0.0,93,0.00,CLR,,0.00,WeatherDisplay:10.37,2013-03-22 13:10:00,
2013-03-22 06:16:00,33.4,31.6,29.99,ESE,112,0.0,0.0,93,0.00,CLR,,0.00,WeatherDisplay:10.37,2013-03-22 13:16:00,
2013-03-22 06:21:00,33.4,31.6,29.99,SE,135,0.0,0.0,93,0.00,CLR,,0.00,WeatherDisplay:10.37,2013-03-22 13:21:00,
2013-03-22 06:26:00,33.4,31.6,29.99,SE,135,0.0,0.0,93,0.00,CLR,,0.00,WeatherDisplay:10.37,2013-03-22 13:26:00,
2013-03-22 06:31:00,33.4,31.6,29.99,SE,135,0.0,0.0,93,0.00,CLR,,0.00,WeatherDisplay:10.37,2013-03-22 13:31:00,
2013-03-22 06:36:00,33.4,31.6,29.99,SE,135,0.0,0.0,93,0.00,CLR,,0.00,WeatherDisplay:10.37,2013-03-22 13:36:00,
2013-03-22 06:41:00,33.4,31.6,29.99,SE,135,0.0,0.0,93,0.00,CLR,,0.00,WeatherDisplay:10.37,2013-03-22 13:41:00,
2013-03-22 06:46:00,33.4,31.6,29.99,SE,135,0.0,0.0,93,0.00,CLR,,0.00,WeatherDisplay:10.37,2013-03-22 13:46:00,
2013-03-22 06:51:00,33.4,31.6,30.00,SE,135,0.0,0.0,93,0.00,CLR,,0.00,WeatherDisplay:10.37,2013-03-22 13:51:00,
2013-03-22 06:56:00,33.4,31.6,30.00,SE,135,0.0,0.0,93,0.00,CLR,,0.00,WeatherDisplay:10.37,2013-03-22 13:56:00,
2013-03-22 07:01:00,33.3,31.5,30.00,SSE,158,0.0,0.0,93,0.00,CLR,,0.00,WeatherDisplay:10.37,2013-03-22 14:01:00,
2013-03-22 07:06:00,33.1,31.3,30.00,SSE,158,0.0,0.0,93,0.00,CLR,,0.00,WeatherDisplay:10.37,2013-03-22 14:06:00,
2013-03-22 07:11:00,33.1,31.3,30.00,SSE,158,0.0,0.0,93,0.00,CLR,,0.00,WeatherDisplay:10.37,2013-03-22 14:11:00,
2013-03-22 07:16:00,32.9,31.1,30.00,SSE,158,0.0,0.0,93,0.00,CLR,,0.00,WeatherDisplay:10.37,2013-03-22 14:16:00,
2013-03-22 07:21:00,32.7,30.9,30.00,SSE,158,0.0,0.0,93,0.00,CLR,,0.00,WeatherDisplay:10.37,2013-03-22 14:21:00,
2013-03-22 07:26:00,32.9,31.1,30.00,SSE,158,0.0,0.0,93,0.00,CLR,,0.00,WeatherDisplay:10.37,2013-03-22 14:26:00,
2013-03-22 07:31:00,32.9,31.1,30.01,SSE,158,0.0,0.0,93,0.00,CLR,,0.00,WeatherDisplay:10.37,2013-03-22 14:31:00,
2013-03-22 07:36:00,33.1,31.3,30.01,SSE,158,0.0,0.0,93,0.00,CLR,,0.00,WeatherDisplay:10.37,2013-03-22 14:36:00,
2013-03-22 07:41:00,33.3,31.5,30.01,SSE,158,0.0,0.0,93,0.00,CLR,,0.00,WeatherDisplay:10.37,2013-03-22 14:41:00,
2013-03-22 07:48:00,33.4,31.6,30.01,SSE,158,0.0,0.0,93,0.00,CLR,,0.00,WeatherDisplay:10.37,2013-03-22 14:48:00,
2013-03-22 07:53:00,33.6,31.8,30.01,SSE,158,0.0,0.0,93,0.00,CLR,,0.00,WeatherDisplay:10.37,2013-03-22 14:53:00,
2013-03-22 07:58:00,33.6,31.8,30.01,SSE,158,0.0,0.0,93,0.00,CLR,,0.00,WeatherDisplay:10.37,2013-03-22 14:58:00,
2013-03-22 08:03:00,33.6,31.8,30.01,SSE,158,0.0,0.0,93,0.00,CLR,,0.00,WeatherDisplay:10.37,2013-03-22 15:03:00,
2013-03-22 08:08:00,33.8,32.0,30.01,SSE,158,0.0,0.0,93,0.00,CLR,,0.00,WeatherDisplay:10.37,2013-03-22 15:08:00,
2013-03-22 08:13:00,34.0,32.2,30.01,SSE,158,0.0,0.0,93,0.00,CLR,,0.00,WeatherDisplay:10.37,2013-03-22 15:13:00,
2013-03-22 08:18:00,34.3,32.5,30.01,SSE,158,0.0,0.0,93,0.00,CLR,,0.00,WeatherDisplay:10.37,2013-03-22 15:18:00,
2013-03-22 08:23:00,34.3,32.5,30.02,SSE,158,0.0,0.0,93,0.00,CLR,,0.00,WeatherDisplay:10.37,2013-03-22 15:23:00,
2013-03-22 08:28:00,34.3,32.5,30.02,SSE,158,0.0,0.0,93,0.00,CLR,,0.00,WeatherDisplay:10.37,2013-03-22 15:28:00,
2013-03-22 08:34:00,34.7,32.9,30.02,SSE,158,0.0,0.0,93,0.00,CLR,,0.00,WeatherDisplay:10.37,2013-03-22 15:34:00,
2013-03-22 08:39:00,34.9,33.1,30.02,SSE,158,0.0,0.0,93,0.00,CLR,,0.00,WeatherDisplay:10.37,2013-03-22 15:39:00,
2013-03-22 08:44:00,34.9,33.1,30.02,SSE,158,0.0,0.0,93,0.00,CLR,,0.00,WeatherDisplay:10.37,2013-03-22 15:44:00,
2013-03-22 08:49:00,35.2,33.7,30.02,SE,135,0.0,0.0,94,0.04,RA,,0.04,WeatherDisplay:10.37,2013-03-22 15:49:00,
2013-03-22 08:54:00,35.4,33.9,30.02,SE,135,0.0,0.0,94,0.04,RA,,0.04,WeatherDisplay:10.37,2013-03-22 15:54:00,
2013-03-22 08:59:00,35.8,34.0,30.03,SE,135,0.0,0.0,93,0.04,CLR,,0.04,WeatherDisplay:10.37,2013-03-22 15:59:00,
2013-03-22 09:04:00,36.0,34.1,30.03,SE,135,0.0,0.0,93,0.04,CLR,,0.04,WeatherDisplay:10.37,2013-03-22 16:04:00,
2013-03-22 09:09:00,36.1,34.3,30.03,SE,135,0.0,0.0,93,0.04,CLR,,0.04,WeatherDisplay:10.37,2013-03-22 16:09:00,
2013-03-22 09:14:00,36.1,34.3,30.03,SE,135,0.0,0.0,93,0.04,CLR,,0.04,WeatherDisplay:10.37,2013-03-22 16:14:00,
2013-03-22 09:19:00,36.1,34.3,30.03,SE,135,0.0,0.0,93,0.04,CLR,,0.04,WeatherDisplay:10.37,2013-03-22 16:19:00,
2013-03-22 09:24:00,36.5,34.7,30.03,SE,135,0.0,0.0,93,0.04,CLR,,0.04,WeatherDisplay:10.37,2013-03-22 16:24:00,
2013-03-22 09:29:00,36.9,35.0,30.03,SE,135,0.0,0.0,93,0.04,CLR,,0.04,WeatherDisplay:10.37,2013-03-22 16:29:00,
2013-03-22 09:34:00,37.6,35.7,30.03,SE,135,0.0,0.0,93,0.04,CLR,,0.04,WeatherDisplay:10.37,2013-03-22 16:34:00,
2013-03-22 09:39:00,37.9,36.1,30.03,SE,135,0.0,0.0,93,0.04,CLR,,0.04,WeatherDisplay:10.37,2013-03-22 16:39:00,
2013-03-22 09:44:00,38.3,36.2,30.04,ESE,112,0.0,0.0,92,0.04,CLR,,0.04,WeatherDisplay:10.37,2013-03-22 16:44:00,
2013-03-22 09:49:00,38.8,36.7,30.04,ESE,112,0.0,0.0,92,0.00,CLR,,0.04,WeatherDisplay:10.37,2013-03-22 16:49:00,
2013-03-22 09:54:00,39.0,36.9,30.03,ESE,112,0.0,0.0,92,0.00,CLR,,0.04,WeatherDisplay:10.37,2013-03-22 16:54:00,
2013-03-22 09:59:00,39.0,36.6,30.03,ESE,112,0.0,0.0,91,0.00,CLR,,0.04,WeatherDisplay:10.37,2013-03-22 16:59:00,
2013-03-22 10:04:00,39.7,37.3,30.03,SE,135,0.0,0.0,91,0.00,CLR,,0.04,WeatherDisplay:10.37,2013-03-22 17:04:00,
2013-03-22 10:10:00,39.9,37.2,30.03,SSE,158,0.0,0.0,90,0.00,CLR,,0.04,WeatherDisplay:10.37,2013-03-22 17:10:00,
2013-03-22 10:15:00,40.1,37.1,30.03,SE,135,0.0,0.0,89,0.00,CLR,,0.04,WeatherDisplay:10.37,2013-03-22 17:15:00,
2013-03-22 10:20:00,40.3,37.3,30.03,SW,225,0.0,0.0,89,0.00,CLR,,0.04,WeatherDisplay:10.37,2013-03-22 17:20:00,
2013-03-22 10:25:00,40.6,37.4,30.04,SW,225,0.0,0.0,88,0.00,CLR,,0.04,WeatherDisplay:10.37,2013-03-22 17:25:00,
2013-03-22 10:30:00,41.4,38.1,30.04,SSE,158,0.0,0.0,88,0.00,CLR,,0.04,WeatherDisplay:10.37,2013-03-22 17:30:00,
2013-03-22 10:35:00,41.5,38.0,30.04,SE,135,0.0,0.0,87,0.00,CLR,,0.04,WeatherDisplay:10.37,2013-03-22 17:35:00,
2013-03-22 10:40:00,41.5,37.7,30.04,SE,135,0.0,0.0,86,0.00,CLR,,0.04,WeatherDisplay:10.37,2013-03-22 17:40:00,
2013-03-22 10:45:00,41.4,37.5,30.04,SSE,158,0.0,0.0,86,0.00,CLR,,0.04,WeatherDisplay:10.37,2013-03-22 17:45:00,
2013-03-22 10:50:00,41.2,37.3,30.04,South,180,0.0,0.0,86,0.00,CLR,,0.04,WeatherDisplay:10.37,2013-03-22 17:50:00,
2013-03-22 10:55:00,41.2,37.3,30.04,SSE,158,0.0,0.0,86,0.00,CLR,,0.04,WeatherDisplay:10.37,2013-03-22 17:55:00,
2013-03-22 11:00:00,40.8,36.7,30.04,SSE,158,0.0,0.0,85,0.00,CLR,,0.04,WeatherDisplay:10.37,2013-03-22 18:00:00,
2013-03-22 11:05:00,40.8,36.7,30.04,SSE,158,0.0,0.0,85,0.00,CLR,,0.04,WeatherDisplay:10.37,2013-03-22 18:05:00,
2013-03-22 11:10:00,41.2,37.0,30.04,South,180,0.0,0.0,85,0.00,CLR,,0.04,WeatherDisplay:10.37,2013-03-22 18:10:00,
2013-03-22 11:15:00,41.7,37.5,30.04,SSE,158,0.0,0.0,85,0.00,CLR,,0.04,WeatherDisplay:10.37,2013-03-22 18:15:00,
2013-03-22 11:20:00,41.5,37.4,30.05,SSE,158,0.0,0.0,85,0.00,CLR,,0.04,WeatherDisplay:10.37,2013-03-22 18:20:00,
2013-03-22 11:25:00,41.4,36.9,30.05,SSE,158,0.0,0.0,84,0.00,CLR,,0.04,WeatherDisplay:10.37,2013-03-22 18:25:00,
2013-03-22 11:30:00,41.2,36.7,30.04,ESE,112,0.0,0.0,84,0.00,CLR,,0.04,WeatherDisplay:10.37,2013-03-22 18:30:00,
2013-03-22 11:35:00,41.2,36.7,30.04,ESE,112,0.0,0.0,84,0.00,CLR,,0.04,WeatherDisplay:10.37,2013-03-22 18:35:00,
2013-03-22 11:40:00,41.5,37.4,30.04,ESE,112,0.0,0.0,85,0.00,CLR,,0.04,WeatherDisplay:10.37,2013-03-22 18:40:00,
2013-03-22 11:45:00,41.7,37.2,30.05,East,90,0.0,0.0,84,0.00,CLR,,0.04,WeatherDisplay:10.37,2013-03-22 18:45:00,
2013-03-22 11:50:00,42.4,37.9,30.05,SW,225,0.0,0.0,84,0.00,CLR,,0.04,WeatherDisplay:10.37,2013-03-22 18:50:00,
2013-03-22 11:55:00,43.0,38.2,30.05,SSW,202,0.0,0.0,83,0.00,CLR,,0.04,WeatherDisplay:10.37,2013-03-22 18:55:00,
2013-03-22 12:01:00,44.2,39.1,30.05,SSW,202,0.0,0.0,82,0.00,CLR,,0.04,WeatherDisplay:10.37,2013-03-22 19:01:00,
2013-03-22 12:06:00,45.5,39.4,30.05,South,180,1.3,1.3,79,0.00,CLR,,0.04,WeatherDisplay:10.37,2013-03-22 19:06:00,
2013-03-22 12:11:00,46.4,40.2,30.05,South,180,0.0,0.0,79,0.00,CLR,,0.04,WeatherDisplay:10.37,2013-03-22 19:11:00,
2013-03-22 12:16:00,46.8,39.9,30.05,West,270,1.2,1.6,77,0.00,CLR,,0.04,WeatherDisplay:10.37,2013-03-22 19:16:00,
2013-03-22 12:21:00,46.2,38.7,30.05,WSW,248,1.2,1.2,75,0.00,CLR,,0.04,WeatherDisplay:10.37,2013-03-22 19:21:00,
2013-03-22 12:26:00,45.1,37.7,30.05,WSW,248,0.0,0.0,75,0.00,CLR,,0.04,WeatherDisplay:10.37,2013-03-22 19:26:00,
2013-03-22 12:31:00,44.2,36.8,30.05,WSW,248,0.0,0.0,75,0.00,CLR,,0.04,WeatherDisplay:10.37,2013-03-22 19:31:00,
2013-03-22 12:36:00,43.2,36.1,30.05,North,0,0.0,0.0,76,0.00,CLR,,0.04,WeatherDisplay:10.37,2013-03-22 19:36:00,
2013-03-22 12:41:00,42.4,35.4,30.05,North,0,0.0,0.0,76,0.00,CLR,,0.04,WeatherDisplay:10.37,2013-03-22 19:41:00,
2013-03-22 12:46:00,42.1,35.4,30.05,North,0,0.0,0.0,77,0.00,CLR,,0.04,WeatherDisplay:10.37,2013-03-22 19:46:00,
2013-03-22 12:51:00,42.1,35.4,30.05,North,0,0.0,0.0,77,0.00,CLR,,0.04,WeatherDisplay:10.37,2013-03-22 19:51:00,
2013-03-22 12:56:00,42.1,35.4,30.05,North,0,0.0,0.0,77,0.00,CLR,,0.04,WeatherDisplay:10.37,2013-03-22 19:56:00,
2013-03-22 13:01:00,42.1,35.4,30.05,North,0,0.0,0.0,77,0.00,CLR,,0.04,WeatherDisplay:10.37,2013-03-22 20:01:00,
2013-03-22 13:06:00,42.6,35.9,30.04,North,0,0.0,0.0,77,0.02,RA,,0.06,WeatherDisplay:10.37,2013-03-22 20:06:00,
2013-03-22 13:11:00,42.6,35.9,30.04,NE,45,0.0,0.0,77,0.02,RA,,0.06,WeatherDisplay:10.37,2013-03-22 20:11:00,
2013-03-22 13:16:00,43.2,35.8,30.04,SSE,158,0.0,0.0,75,0.02,CLR,,0.06,WeatherDisplay:10.37,2013-03-22 20:16:00,
2013-03-22 13:21:00,44.4,37.0,30.04,SSE,158,2.3,2.3,75,0.02,CLR,,0.06,WeatherDisplay:10.37,2013-03-22 20:21:00,
2013-03-22 13:26:00,44.8,37.0,30.04,SE,135,0.0,0.0,74,0.02,CLR,,0.06,WeatherDisplay:10.37,2013-03-22 20:26:00,
2013-03-22 13:31:00,45.0,36.8,30.04,SSW,202,0.0,0.0,73,0.02,CLR,,0.06,WeatherDisplay:10.37,2013-03-22 20:31:00,
2013-03-22 13:36:00,45.5,37.0,30.04,NNE,22,1.6,1.6,72,0.02,CLR,,0.06,WeatherDisplay:10.37,2013-03-22 20:36:00,
2013-03-22 13:41:00,44.4,36.0,30.05,NNE,22,0.0,0.0,72,0.02,CLR,,0.06,WeatherDisplay:10.37,2013-03-22 20:41:00,
2013-03-22 13:46:00,43.5,35.4,30.05,NNE,22,0.0,0.0,73,0.02,CLR,,0.06,WeatherDisplay:10.37,2013-03-22 20:46:00,
2013-03-22 13:51:00,42.1,34.4,30.05,NNE,22,0.0,0.0,74,0.02,CLR,,0.06,WeatherDisplay:10.37,2013-03-22 20:51:00,
2013-03-22 13:56:00,42.1,34.7,30.05,NNE,22,0.0,0.0,75,0.02,CLR,,0.06,WeatherDisplay:10.37,2013-03-22 20:56:00,
2013-03-22 14:01:00,42.6,35.2,30.04,NNE,22,0.0,0.0,75,0.02,CLR,,0.06,WeatherDisplay:10.37,2013-03-22 21:01:00,
2013-03-22 14:06:00,43.3,35.9,30.04,WNW,292,0.0,0.0,75,0.00,CLR,,0.06,WeatherDisplay:10.37,2013-03-22 21:06:00,
2013-03-22 14:11:00,44.8,37.3,30.04,NW,315,0.0,0.0,75,0.00,CLR,,0.06,WeatherDisplay:10.37,2013-03-22 21:11:00,
2013-03-22 14:16:00,45.7,38.2,30.04,West,270,0.0,0.0,75,0.00,CLR,,0.06,WeatherDisplay:10.37,2013-03-22 21:16:00,
2013-03-22 14:21:00,46.8,38.6,30.04,WSW,248,0.0,0.0,73,0.00,CLR,,0.06,WeatherDisplay:10.37,2013-03-22 21:21:00,
2013-03-22 14:26:00,46.8,37.9,30.04,West,270,4.0,4.0,71,0.00,CLR,,0.06,WeatherDisplay:10.37,2013-03-22 21:26:00,
2013-03-22 14:31:00,46.8,37.1,30.04,WNW,292,6.3,6.3,69,0.00,CLR,,0.06,WeatherDisplay:10.37,2013-03-22 21:31:00,
2013-03-22 14:36:00,45.1,35.9,30.04,NNE,22,0.0,0.0,70,0.00,CLR,,0.06,WeatherDisplay:10.37,2013-03-22 21:36:00,
2013-03-22 14:41:00,44.6,35.1,30.04,NE,45,0.0,0.0,69,0.00,CLR,,0.06,WeatherDisplay:10.37,2013-03-22 21:41:00,
2013-03-22 14:46:00,44.2,34.3,30.04,NE,45,0.0,0.0,68,0.00,CLR,,0.06,WeatherDisplay:10.37,2013-03-22 21:46:00,
2013-03-22 14:51:00,43.7,34.2,30.04,NE,45,0.0,0.0,69,0.00,CLR,,0.06,WeatherDisplay:10.37,2013-03-22 21:51:00,
2013-03-22 14:56:00,44.2,35.1,30.04,NE,45,0.0,0.0,70,0.00,CLR,,0.06,WeatherDisplay:10.37,2013-03-22 21:56:00,
2013-03-22 15:01:00,44.4,35.2,30.04,SE,135,0.0,0.0,70,0.00,CLR,,0.06,WeatherDisplay:10.37,2013-03-22 22:01:00,
2013-03-22 15:06:00,45.1,35.9,30.04,WSW,248,0.0,0.0,70,0.00,CLR,,0.06,WeatherDisplay:10.37,2013-03-22 22:06:00,
2013-03-22 15:11:00,45.1,35.6,30.04,SW,225,0.0,0.0,69,0.00,CLR,,0.06,WeatherDisplay:10.37,2013-03-22 22:11:00,
2013-03-22 15:16:00,45.0,35.0,30.04,SW,225,0.0,0.0,68,0.00,CLR,,0.06,WeatherDisplay:10.37,2013-03-22 22:16:00,
2013-03-22 15:21:00,45.1,35.2,30.04,South,180,0.0,0.0,68,0.00,CLR,,0.06,WeatherDisplay:10.37,2013-03-22 22:21:00,
2013-03-22 15:26:00,46.0,36.4,30.04,ESE,112,3.6,3.6,69,0.00,CLR,,0.06,WeatherDisplay:10.37,2013-03-22 22:26:00,
2013-03-22 15:32:00,47.1,37.1,30.04,East,90,0.0,0.0,68,0.00,CLR,,0.06,WeatherDisplay:10.37,2013-03-22 22:32:00,
2013-03-22 15:37:00,47.5,36.3,30.04,NNE,22,0.0,0.0,65,0.00,CLR,,0.06,WeatherDisplay:10.37,2013-03-22 22:37:00,
2013-03-22 15:42:00,47.1,35.6,30.04,NNE,22,0.0,0.0,64,0.00,CLR,,0.06,WeatherDisplay:10.37,2013-03-22 22:42:00,
2013-03-22 15:47:00,47.5,35.9,30.04,NNE,22,1.2,1.2,64,0.00,CLR,,0.06,WeatherDisplay:10.37,2013-03-22 22:47:00,
2013-03-22 15:52:00,47.3,35.7,30.04,ENE,68,0.0,0.0,64,0.00,CLR,,0.06,WeatherDisplay:10.37,2013-03-22 22:52:00,
2013-03-22 15:57:00,47.1,35.6,30.04,ENE,68,0.0,0.0,64,0.00,CLR,,0.06,WeatherDisplay:10.37,2013-03-22 22:57:00,
2013-03-22 16:02:00,46.9,35.0,30.04,ESE,112,0.0,0.0,63,0.00,CLR,,0.06,WeatherDisplay:10.37,2013-03-22 23:02:00,
2013-03-22 16:07:00,47.5,35.5,30.04,NW,315,0.0,0.0,63,0.00,CLR,,0.06,WeatherDisplay:10.37,2013-03-22 23:07:00,
2013-03-22 16:13:00,48.0,33.9,30.04,NNE,22,0.0,0.0,58,0.00,CLR,,0.06,WeatherDisplay:10.37,2013-03-22 23:13:00,
2013-03-22 16:18:00,48.2,34.1,30.04,WNW,292,0.0,0.0,58,0.00,CLR,,0.06,WeatherDisplay:10.37,2013-03-22 23:18:00,
2013-03-22 16:23:00,48.7,35.0,30.04,ESE,112,1.2,1.2,59,0.00,CLR,,0.06,WeatherDisplay:10.37,2013-03-22 23:23:00,
2013-03-22 16:29:00,49.1,35.8,30.04,SSW,202,1.6,1.6,60,0.00,CLR,,0.06,WeatherDisplay:10.37,2013-03-22 23:29:00,
2013-03-22 16:34:00,49.8,36.5,30.04,SSE,158,0.0,0.0,60,0.00,CLR,,0.06,WeatherDisplay:10.37,2013-03-22 23:34:00,
2013-03-22 16:39:00,50.2,36.8,30.04,East,90,0.0,0.0,60,0.00,CLR,,0.06,WeatherDisplay:10.37,2013-03-22 23:39:00,
2013-03-22 16:44:00,50.2,36.0,30.04,NNE,22,0.0,0.0,58,0.00,CLR,,0.06,WeatherDisplay:10.37,2013-03-22 23:44:00,
2013-03-22 16:49:00,50.2,36.0,30.04,ENE,68,1.2,1.2,58,0.00,CLR,,0.06,WeatherDisplay:10.37,2013-03-22 23:49:00,
2013-03-22 16:54:00,50.2,36.0,30.04,East,90,1.2,1.2,58,0.00,CLR,,0.06,WeatherDisplay:10.37,2013-03-22 23:54:00,
2013-03-22 16:59:00,50.2,36.0,30.05,ENE,68,0.0,0.0,58,0.00,CLR,,0.06,WeatherDisplay:10.37,2013-03-22 23:59:00,
2013-03-22 17:04:00,49.6,35.9,30.05,NNE,22,0.0,0.0,59,0.00,CLR,,0.06,WeatherDisplay:10.37,2013-03-23 00:04:00,
2013-03-22 17:09:00,49.3,35.5,30.05,NNE,22,0.0,0.0,59,0.00,CLR,,0.06,WeatherDisplay:10.37,2013-03-23 00:09:00,
2013-03-22 17:14:00,49.1,35.8,30.05,West,270,0.0,0.0,60,0.00,CLR,,0.06,WeatherDisplay:10.37,2013-03-23 00:14:00,
2013-03-22 17:19:00,48.9,35.2,30.05,NNE,22,1.2,1.2,59,0.00,CLR,,0.06,WeatherDisplay:10.37,2013-03-23 00:19:00,
2013-03-22 17:24:00,48.7,35.0,30.05,East,90,0.0,0.0,59,0.00,CLR,,0.06,WeatherDisplay:10.37,2013-03-23 00:24:00,
2013-03-22 17:29:00,48.7,35.5,30.05,East,90,0.0,0.0,60,0.00,CLR,,0.06,WeatherDisplay:10.37,2013-03-23 00:29:00,
2013-03-22 17:34:00,48.7,35.0,30.05,NNE,22,0.0,0.0,59,0.00,CLR,,0.06,WeatherDisplay:10.37,2013-03-23 00:34:00,
2013-03-22 17:39:00,48.2,34.5,30.06,NNE,22,1.2,1.2,59,0.00,CLR,,0.06,WeatherDisplay:10.37,2013-03-23 00:39:00,
2013-03-22 17:44:00,47.5,34.3,30.06,NE,45,0.0,0.0,60,0.00,CLR,,0.06,WeatherDisplay:10.37,2013-03-23 00:44:00,
2013-03-22 17:49:00,46.9,34.2,30.05,SE,135,1.6,1.6,61,0.00,CLR,,0.06,WeatherDisplay:10.37,2013-03-23 00:49:00,
2013-03-22 17:54:00,46.8,34.4,30.06,SSW,202,0.0,0.0,62,0.00,CLR,,0.06,WeatherDisplay:10.37,2013-03-23 00:54:00,
2013-03-22 17:59:00,46.2,33.9,30.06,NE,45,0.0,0.0,62,0.00,CLR,,0.06,WeatherDisplay:10.37,2013-03-23 00:59:00,
2013-03-22 18:04:00,45.7,33.0,30.06,NW,315,0.0,0.0,61,0.00,CLR,,0.06,WeatherDisplay:10.37,2013-03-23 01:04:00,
2013-03-22 18:09:00,45.1,32.9,30.06,NW,315,0.0,0.0,62,0.00,CLR,,0.06,WeatherDisplay:10.37,2013-03-23 01:09:00,
2013-03-22 18:14:00,44.6,32.8,30.06,NW,315,0.0,0.0,63,0.00,CLR,,0.06,WeatherDisplay:10.37,2013-03-23 01:14:00,
2013-03-22 18:19:00,43.9,32.5,30.06,NW,315,0.0,0.0,64,0.00,CLR,,0.06,WeatherDisplay:10.37,2013-03-23 01:19:00,
2013-03-22 18:24:00,43.5,32.5,30.06,ENE,68,0.0,0.0,65,0.00,CLR,,0.06,WeatherDisplay:10.37,2013-03-23 01:24:00,
2013-03-22 18:29:00,43.3,32.7,30.06,East,90,0.0,0.0,66,0.00,CLR,,0.06,WeatherDisplay:10.37,2013-03-23 01:29:00,
2013-03-22 18:34:00,43.0,32.4,30.06,East,90,0.0,0.0,66,0.00,CLR,,0.06,WeatherDisplay:10.37,2013-03-23 01:34:00,
2013-03-22 18:39:00,42.4,31.9,30.06,East,90,0.0,0.0,66,0.00,CLR,,0.06,WeatherDisplay:10.37,2013-03-23 01:39:00,
2013-03-22 18:44:00,42.1,31.5,30.06,East,90,0.0,0.0,66,0.00,CLR,,0.06,WeatherDisplay:10.37,2013-03-23 01:44:00,
2013-03-22 18:49:00,41.9,31.7,30.06,East,90,0.0,0.0,67,0.00,CLR,,0.06,WeatherDisplay:10.37,2013-03-23 01:49:00,
2013-03-22 18:54:00,41.5,31.4,30.06,East,90,0.0,0.0,67,0.00,CLR,,0.06,WeatherDisplay:10.37,2013-03-23 01:54:00,
2013-03-22 18:59:00,41.2,31.4,30.06,East,90,0.0,0.0,68,0.00,CLR,,0.06,WeatherDisplay:10.37,2013-03-23 01:59:00,
2013-03-22 19:04:00,40.8,31.1,30.06,East,90,0.0,0.0,68,0.00,CLR,,0.06,WeatherDisplay:10.37,2013-03-23 02:04:00,
2013-03-22 19:09:00,40.5,31.1,30.06,East,90,0.0,0.0,69,0.00,CLR,,0.06,WeatherDisplay:10.37,2013-03-23 02:09:00,
2013-03-22 19:14:00,40.1,31.1,30.06,East,90,0.0,0.0,70,0.00,CLR,,0.06,WeatherDisplay:10.37,2013-03-23 02:14:00,
2013-03-22 19:20:00,39.6,30.9,30.05,East,90,0.0,0.0,71,0.00,CLR,,0.06,WeatherDisplay:10.37,2013-03-23 02:20:00,
2013-03-22 19:25:00,39.0,30.4,30.05,East,90,0.0,0.0,71,0.00,CLR,,0.06,WeatherDisplay:10.37,2013-03-23 02:25:00,
2013-03-22 19:30:00,38.7,30.4,30.05,East,90,0.0,0.0,72,0.00,CLR,,0.06,WeatherDisplay:10.37,2013-03-23 02:30:00,
2013-03-22 19:35:00,38.3,30.1,30.05,East,90,0.0,0.0,72,0.00,CLR,,0.06,WeatherDisplay:10.37,2013-03-23 02:35:00,
2013-03-22 19:40:00,37.8,29.9,30.05,East,90,0.0,0.0,73,0.00,CLR,,0.06,WeatherDisplay:10.37,2013-03-23 02:40:00,
2013-03-22 19:45:00,37.4,29.9,30.06,East,90,0.0,0.0,74,0.00,CLR,,0.06,WeatherDisplay:10.37,2013-03-23 02:45:00,
2013-03-22 19:50:00,37.2,29.7,30.06,East,90,0.0,0.0,74,0.00,CLR,,0.06,WeatherDisplay:10.37,2013-03-23 02:50:00,
2013-03-22 19:55:00,36.7,29.5,30.06,East,90,0.0,0.0,75,0.00,CLR,,0.06,WeatherDisplay:10.37,2013-03-23 02:55:00,
2013-03-22 20:00:00,36.3,29.2,30.07,East,90,0.0,0.0,75,0.00,CLR,,0.06,WeatherDisplay:10.37,2013-03-23 03:00:00,
2013-03-22 20:05:00,36.1,29.3,30.06,East,90,0.0,0.0,76,0.00,CLR,,0.06,WeatherDisplay:10.37,2013-03-23 03:05:00,
2013-03-22 20:10:00,35.8,29.3,30.06,East,90,0.0,0.0,77,0.00,CLR,,0.06,WeatherDisplay:10.37,2013-03-23 03:10:00,
2013-03-22 20:15:00,35.4,28.9,30.07,East,90,0.0,0.0,77,0.00,CLR,,0.06,WeatherDisplay:10.37,2013-03-23 03:15:00,
2013-03-22 20:20:00,35.2,28.8,30.07,East,90,0.0,0.0,77,0.00,CLR,,0.06,WeatherDisplay:10.37,2013-03-23 03:20:00,
2013-03-22 20:25:00,34.9,28.4,30.07,East,90,0.0,0.0,77,0.00,CLR,,0.06,WeatherDisplay:10.37,2013-03-23 03:25:00,
2013-03-22 20:30:00,34.3,28.2,30.07,East,90,0.0,0.0,78,0.00,CLR,,0.06,WeatherDisplay:10.37,2013-03-23 03:30:00,
2013-03-22 20:35:00,34.3,28.2,30.08,East,90,0.0,0.0,78,0.00,CLR,,0.06,WeatherDisplay:10.37,2013-03-23 03:35:00,
2013-03-22 20:40:00,34.0,28.2,30.08,East,90,0.0,0.0,79,0.00,CLR,,0.06,WeatherDisplay:10.37,2013-03-23 03:40:00,
2013-03-22 20:45:00,33.6,28.1,30.08,East,90,0.0,0.0,80,0.00,CLR,,0.06,WeatherDisplay:10.37,2013-03-23 03:45:00,
2013-03-22 20:50:00,33.6,28.1,30.08,East,90,0.0,0.0,80,0.00,CLR,,0.06,WeatherDisplay:10.37,2013-03-23 03:50:00,
2013-03-22 20:55:00,33.4,27.9,30.09,East,90,0.0,0.0,80,0.00,CLR,,0.06,WeatherDisplay:10.37,2013-03-23 03:55:00,
2013-03-22 21:00:00,33.1,27.9,30.09,East,90,0.0,0.0,81,0.00,CLR,,0.06,WeatherDisplay:10.37,2013-03-23 04:00:00,
2013-03-22 21:01:00,33.1,27.9,30.09,East,90,0.0,0.0,81,0.00,CLR,,0.06,WeatherDisplay:10.37,2013-03-23 04:01:00,
2013-03-22 21:07:00,32.7,27.5,30.09,East,90,0.0,0.0,81,0.00,CLR,,0.06,WeatherDisplay:10.37,2013-03-23 04:07:00,
2013-03-22 21:10:00,32.5,27.4,30.09,East,90,0.0,0.0,81,0.00,CLR,,0.06,WeatherDisplay:10.37,2013-03-23 04:10:00,
2013-03-22 21:15:00,32.4,27.5,30.09,East,90,0.0,0.0,82,0.00,CLR,,0.06,WeatherDisplay:10.37,2013-03-23 04:15:00,
2013-03-22 21:17:00,32.4,27.5,30.10,East,90,0.0,0.0,82,0.00,CLR,,0.06,WeatherDisplay:10.37,2013-03-23 04:17:00,
2013-03-22 21:22:00,32.2,27.3,30.09,East,90,0.0,0.0,82,0.00,CLR,,0.06,WeatherDisplay:10.37,2013-03-23 04:22:00,
2013-03-22 21:27:00,31.8,27.0,30.10,East,90,0.0,0.0,82,0.00,CLR,,0.06,WeatherDisplay:10.37,2013-03-23 04:27:00,
2013-03-22 21:33:00,31.6,27.1,30.10,East,90,0.0,0.0,83,0.00,CLR,,0.06,WeatherDisplay:10.37,2013-03-23 04:33:00,
2013-03-22 21:38:00,31.3,26.7,30.10,East,90,0.0,0.0,83,0.00,CLR,,0.06,WeatherDisplay:10.37,2013-03-23 04:38:00,
2013-03-22 21:43:00,31.3,26.7,30.10,East,90,0.0,0.0,83,0.00,CLR,,0.06,WeatherDisplay:10.37,2013-03-23 04:43:00,
2013-03-22 21:48:00,31.1,26.8,30.11,East,90,0.0,0.0,84,0.00,CLR,,0.06,WeatherDisplay:10.37,2013-03-23 04:48:00,
2013-03-22 21:53:00,30.7,26.5,30.10,East,90,0.0,0.0,84,0.00,CLR,,0.06,WeatherDisplay:10.37,2013-03-23 04:53:00,
2013-03-22 21:58:00,30.7,26.5,30.11,East,90,0.0,0.0,84,0.00,CLR,,0.06,WeatherDisplay:10.37,2013-03-23 04:58:00,
2013-03-22 22:03:00,30.6,26.3,30.10,East,90,0.0,0.0,84,0.00,CLR,,0.06,WeatherDisplay:10.37,2013-03-23 05:03:00,
2013-03-22 22:08:00,30.4,26.1,30.10,East,90,0.0,0.0,84,0.00,CLR,,0.06,WeatherDisplay:10.37,2013-03-23 05:08:00,
2013-03-22 22:13:00,30.2,25.9,30.10,East,90,0.0,0.0,84,0.00,CLR,,0.06,WeatherDisplay:10.37,2013-03-23 05:13:00,
2013-03-22 22:18:00,30.0,26.1,30.10,East,90,0.0,0.0,85,0.00,CLR,,0.06,WeatherDisplay:10.37,2013-03-23 05:18:00,
2013-03-22 22:23:00,30.0,26.1,30.10,East,90,0.0,0.0,85,0.00,CLR,,0.06,WeatherDisplay:10.37,2013-03-23 05:23:00,
2013-03-22 22:28:00,29.8,25.9,30.10,East,90,0.0,0.0,85,0.00,CLR,,0.06,WeatherDisplay:10.37,2013-03-23 05:28:00,
2013-03-22 22:33:00,29.8,25.9,30.10,East,90,0.0,0.0,85,0.00,CLR,,0.06,WeatherDisplay:10.37,2013-03-23 05:33:00,
2013-03-22 22:38:00,29.5,25.5,30.10,East,90,0.0,0.0,85,0.00,CLR,,0.06,WeatherDisplay:10.37,2013-03-23 05:38:00,
2013-03-22 22:43:00,29.5,25.5,30.10,East,90,0.0,0.0,85,0.00,CLR,,0.06,WeatherDisplay:10.37,2013-03-23 05:43:00,
2013-03-22 22:48:00,29.3,25.6,30.10,East,90,0.0,0.0,86,0.00,CLR,,0.06,WeatherDisplay:10.37,2013-03-23 05:48:00,
2013-03-22 22:53:00,29.1,25.5,30.10,East,90,0.0,0.0,86,0.00,CLR,,0.06,WeatherDisplay:10.37,2013-03-23 05:53:00,
2013-03-22 22:58:00,29.1,25.5,30.10,East,90,0.0,0.0,86,0.00,CLR,,0.06,WeatherDisplay:10.37,2013-03-23 05:58:00,
2013-03-22 23:03:00,29.1,25.5,30.10,East,90,0.0,0.0,86,0.00,CLR,,0.06,WeatherDisplay:10.37,2013-03-23 06:03:00,
2013-03-22 23:08:00,29.1,25.5,30.10,East,90,0.0,0.0,86,0.00,CLR,,0.06,WeatherDisplay:10.37,2013-03-23 06:08:00,
2013-03-22 23:13:00,29.1,25.7,30.10,East,90,0.0,0.0,87,0.00,CLR,,0.06,WeatherDisplay:10.37,2013-03-23 06:13:00,
2013-03-22 23:18:00,28.9,25.6,30.10,East,90,0.0,0.0,87,0.00,CLR,,0.06,WeatherDisplay:10.37,2013-03-23 06:18:00,
2013-03-22 23:23:00,28.9,25.6,30.10,East,90,0.0,0.0,87,0.00,CLR,,0.06,WeatherDisplay:10.37,2013-03-23 06:23:00,
2013-03-22 23:28:00,28.8,25.4,30.10,East,90,0.0,0.0,87,0.00,CLR,,0.06,WeatherDisplay:10.37,2013-03-23 06:28:00,
2013-03-22 23:33:00,28.8,25.4,30.10,East,90,0.0,0.0,87,0.00,CLR,,0.06,WeatherDisplay:10.37,2013-03-23 06:33:00,
2013-03-22 23:38:00,28.6,25.2,30.11,East,90,0.0,0.0,87,0.00,CLR,,0.06,WeatherDisplay:10.37,2013-03-23 06:38:00,
2013-03-22 23:43:00,28.6,25.2,30.11,East,90,0.0,0.0,87,0.00,CLR,,0.06,WeatherDisplay:10.37,2013-03-23 06:43:00,
2013-03-22 23:48:00,28.6,25.2,30.11,East,90,0.0,0.0,87,0.00,CLR,,0.06,WeatherDisplay:10.37,2013-03-23 06:48:00,
2013-03-22 23:53:00,28.6,25.2,30.11,East,90,0.0,0.0,87,0.00,CLR,,0.06,WeatherDisplay:10.37,2013-03-23 06:53:00,
2013-03-22 23:58:00,28.6,25.2,30.11,East,90,0.0,0.0,87,0.00,CLR,,0.06,WeatherDisplay:10.37,2013-03-23 06:58:00,